Time;durP1;ratioP1;P1;durP2;ratioP2;P2;SDS_P1;SDS_P2;PMS_P1;PMS_P2;Temp;Humidity;BMP_temperature;BMP_pressure;BME280_temperature;BME280_humidity;BME280_pressure;Samples;Min_cycle;Max_cycle;Signal;HPM_P1;HPM_P2
2022/09/21 00:00:39;;;;;;;;;;;;;;;-142.75;100.00;78170.97;5074000;28;19951;-67
2022/09/21 00:03:04;;;;;;;;;;;;;;;-142.75;100.00;78167.03;5074139;28;20389;-67
2022/09/21 00:05:30;;;;;;;;;;;;;;;-142.75;100.00;78159.16;5074609;28;19916;-67
2022/09/21 00:07:58;;;;;;;;;;;;;;;-142.75;100.00;78151.28;5073899;28;19916;-67
2022/09/21 00:10:24;;;;;;;;;;;;;;;-142.75;100.00;78153.25;5074084;28;19970;-68
2022/09/21 00:12:49;;;;;;;;;;;;;;;-142.75;100.00;78145.38;5072613;28;20418;-67
2022/09/21 00:15:18;;;;;;;;;;;;;;;-142.75;100.00;78143.41;5093382;22;19928;-66
2022/09/21 00:17:43;;;;;;;;;;;;;;;-142.75;100.00;78143.41;5071212;28;19970;-64
2022/09/21 00:20:09;;;;;;;;;;;;;;;-142.75;100.00;78131.59;5055716;28;19913;-67
2022/09/21 00:22:34;;;;;;;;;;;;;;;-142.75;100.00;78145.38;5073468;28;20362;-67
2022/09/21 00:25:02;;;;;;;;;;;;;;;-142.75;100.00;78147.34;5073415;28;20333;-67
2022/09/21 00:27:28;;;;;;;;;;;;;;;-142.75;100.00;78149.31;5073191;28;19918;-67
2022/09/21 00:30:03;;;;;;;;;;;;;;;-142.75;100.00;78149.31;5055473;28;19912;-67
2022/09/21 00:32:32;;;;;;;;;;;;;;;-142.75;100.00;78141.44;5072753;28;19916;-67
2022/09/21 00:34:59;;;;;;;;;;;;;;;-142.75;100.00;78137.50;5073290;28;20124;-66
2022/09/21 00:37:24;;;;;;;;;;;;;;;-142.75;100.00;78127.66;5073009;28;20004;-66
2022/09/21 00:39:50;;;;;;;;;;;;;;;-142.75;100.00;78133.56;5073239;28;19916;-66
2022/09/21 00:42:17;;;;;;;;;;;;;;;-142.75;100.00;78133.56;5073147;28;20007;-67
2022/09/21 00:44:43;;;;;;;;;;;;;;;-142.75;100.00;78135.53;5072815;28;20520;-67
2022/09/21 00:47:16;;;;;;;;;;;;;;;-142.75;100.00;78137.50;5054753;28;19956;-66
2022/09/21 00:49:43;;;;;;;;;;;;;;;-142.75;100.00;78153.25;5073126;28;20290;-66
2022/09/21 00:52:11;;;;;;;;;;;;;;;-142.75;100.00;78151.28;5072933;28;19920;-67
2022/09/21 00:54:43;;;;;;;;;;;;;;;-142.75;100.00;78159.16;5054998;28;20369;-66
2022/09/21 00:57:08;;;;;;;;;;;;;;;-142.75;100.00;78161.13;5054588;28;20374;-67
2022/09/21 00:59:36;;;;;;;;;;;;;;;-142.75;100.00;78163.09;5072748;28;19916;-66
2022/09/21 01:02:01;;;;;;;;;;;;;;;-142.75;100.00;78161.13;5072806;28;19913;-67
2022/09/21 01:04:27;;;;;;;;;;;;;;;-142.75;100.00;78157.19;5072642;28;19917;-66
2022/09/21 01:06:53;;;;;;;;;;;;;;;-142.75;100.00;78157.19;5072484;28;19935;-66
2022/09/21 01:09:18;;;;;;;;;;;;;;;-142.75;100.00;78157.19;5072650;28;19966;-67
2022/09/21 01:12:07;;;;;;;;;;;;;;;-142.75;100.00;78151.28;5072643;28;20405;-67
2022/09/21 01:14:32;;;;;;;;;;;;;;;-142.75;100.00;78123.72;5058860;28;19916;-66
2022/09/21 01:17:09;;;;;;;;;;;;;;;-142.75;100.00;78117.81;5054366;28;20301;-67
2022/09/21 01:19:37;;;;;;;;;;;;;;;-142.75;100.00;78117.81;5054610;28;19991;-67
2022/09/21 01:22:12;;;;;;;;;;;;;;;-142.75;100.00;78127.66;5072528;28;19917;-66
2022/09/21 01:24:45;;;;;;;;;;;;;;;-142.75;100.00;78141.44;5072316;28;19970;-69
2022/09/21 01:27:23;;;;;;;;;;;;;;;-142.75;100.00;78149.31;5072219;28;19920;-69
2022/09/21 01:29:48;;;;;;;;;;;;;;;-142.75;100.00;78145.38;5072386;28;20305;-69
2022/09/21 01:32:19;;;;;;;;;;;;;;;-142.75;100.00;78145.38;5072437;28;19916;-69
2022/09/21 01:34:57;;;;;;;;;;;;;;;-142.75;100.00;78145.38;5072222;28;19916;-69
2022/09/21 01:37:24;;;;;;;;;;;;;;;-142.75;100.00;78157.19;5072045;28;19916;-69
2022/09/21 01:39:53;;;;;;;;;;;;;;;-142.75;100.00;78149.31;5054400;28;19963;-69
2022/09/21 01:42:19;;;;;;;;;;;;;;;-142.75;100.00;78145.38;5072277;28;20374;-69
2022/09/21 01:44:44;;;;;;;;;;;;;;;-142.75;100.00;78133.56;5071196;28;19999;-69
2022/09/21 01:47:13;;;;;;;;;;;;;;;-142.75;100.00;78143.41;5071903;28;20386;-69
2022/09/21 01:49:51;;;;;;;;;;;;;;;-142.75;100.00;78157.19;5072264;28;19912;-69
2022/09/21 01:52:18;;;;;;;;;;;;;;;-142.75;100.00;78143.41;5072152;28;19913;-69
2022/09/21 01:54:57;;;;;;;;;;;;;;;-142.75;100.00;78155.22;5072053;28;19913;-70
2022/09/21 01:57:35;;;;;;;;;;;;;;;-142.75;100.00;78141.44;5071815;28;19913;-70
2022/09/21 02:00:01;;;;;;;;;;;;;;;-142.75;100.00;78133.56;5072265;28;20023;-69
2022/09/21 02:02:26;;;;;;;;;;;;;;;-142.75;100.00;78139.47;5072003;28;20015;-69
2022/09/21 02:04:52;;;;;;;;;;;;;;;-142.75;100.00;78149.31;5071767;28;19912;-70
2022/09/21 02:07:17;;;;;;;;;;;;;;;-142.75;100.00;78145.38;5048401;28;19928;-69
2022/09/21 02:09:45;;;;;;;;;;;;;;;-142.75;100.00;78141.44;5051723;28;19924;-69
2022/09/21 02:12:11;;;;;;;;;;;;;;;-142.75;100.00;78143.41;5051749;28;19913;-67
2022/09/21 02:14:37;;;;;;;;;;;;;;;-142.75;100.00;78143.41;5051605;28;19924;-67
2022/09/21 02:17:09;;;;;;;;;;;;;;;-142.75;100.00;78145.38;5051489;28;20405;-67
2022/09/21 02:19:45;;;;;;;;;;;;;;;-142.75;100.00;78149.31;5051835;28;19923;-66
2022/09/21 02:22:14;;;;;;;;;;;;;;;-142.75;100.00;78167.03;5051733;28;19956;-67
2022/09/21 02:24:46;;;;;;;;;;;;;;;-142.75;100.00;78161.13;5033643;28;19986;-66
2022/09/21 02:27:23;;;;;;;;;;;;;;;-142.75;100.00;78165.06;5033547;28;19916;-66
2022/09/21 02:29:57;;;;;;;;;;;;;;;-142.75;100.00;78165.06;5051684;28;19995;-69
2022/09/21 02:32:23;;;;;;;;;;;;;;;-142.75;100.00;78155.22;5051788;28;20302;-70
2022/09/21 02:34:52;;;;;;;;;;;;;;;-142.75;100.00;78155.22;5051605;28;19913;-69
2022/09/21 02:37:18;;;;;;;;;;;;;;;-142.75;100.00;78163.09;5033308;28;19912;-69
2022/09/21 02:39:43;;;;;;;;;;;;;;;-142.75;100.00;78145.38;5034095;28;20260;-69
2022/09/21 02:42:11;;;;;;;;;;;;;;;-142.75;100.00;78143.41;5032001;28;20002;-69
2022/09/21 02:44:42;;;;;;;;;;;;;;;-142.75;100.00;78149.31;5031698;28;19920;-69
2022/09/21 02:47:17;;;;;;;;;;;;;;;-142.75;100.00;78165.06;5050486;28;19913;-69
2022/09/21 02:49:45;;;;;;;;;;;;;;;-142.75;100.00;78157.19;5051564;28;19962;-69
2022/09/21 02:52:12;;;;;;;;;;;;;;;-142.75;100.00;78155.22;5033722;28;19948;-69
2022/09/21 02:54:39;;;;;;;;;;;;;;;-142.75;100.00;78159.16;5051676;28;19913;-69
2022/09/21 02:57:04;;;;;;;;;;;;;;;-142.75;100.00;78159.16;5054857;28;19951;-69
2022/09/21 02:59:30;;;;;;;;;;;;;;;-142.75;100.00;78159.16;5037307;28;19960;-69
2022/09/21 03:01:55;;;;;;;;;;;;;;;-142.75;100.00;78165.06;5037240;28;19963;-69
2022/09/21 03:04:21;;;;;;;;;;;;;;;-142.75;100.00;78208.41;5054843;28;20390;-69
2022/09/21 03:06:47;;;;;;;;;;;;;;;-142.75;100.00;78206.44;5054774;28;20339;-69
2022/09/21 03:09:12;;;;;;;;;;;;;;;-142.75;100.00;78261.56;5037058;28;19948;-68
2022/09/21 03:11:38;;;;;;;;;;;;;;;-142.75;100.00;78279.28;5054917;28;20301;-69
2022/09/21 03:14:07;;;;;;;;;;;;;;;-142.75;100.00;78308.84;5036825;28;19917;-69
2022/09/21 03:16:32;;;;;;;;;;;;;;;-142.75;100.00;78304.91;5054701;28;19920;-67
2022/09/21 03:18:58;;;;;;;;;;;;;;;-142.75;100.00;78297.00;5054631;28;19913;-69
2022/09/21 03:21:23;;;;;;;;;;;;;;;-142.75;100.00;78287.16;5054837;28;19952;-69
2022/09/21 03:23:48;;;;;;;;;;;;;;;-142.75;100.00;78283.22;5036801;28;19916;-69
2022/09/21 03:26:13;;;;;;;;;;;;;;;-142.75;100.00;78287.16;5054654;28;20321;-69
2022/09/21 03:28:38;;;;;;;;;;;;;;;-142.75;100.00;78322.63;5054336;28;20003;-69
2022/09/21 03:31:05;;;;;;;;;;;;;;;-142.75;100.00;78322.63;5036717;28;20011;-69
2022/09/21 03:33:30;;;;;;;;;;;;;;;-142.75;100.00;78330.50;5036544;28;20321;-69
2022/09/21 03:35:55;;;;;;;;;;;;;;;-142.75;100.00;78362.00;5036573;28;19920;-69
2022/09/21 03:38:21;;;;;;;;;;;;;;;-142.75;100.00;78350.19;5054212;28;19912;-69
2022/09/21 03:40:46;;;;;;;;;;;;;;;-142.75;100.00;78346.25;5054416;28;20345;-69
2022/09/21 03:43:12;;;;;;;;;;;;;;;-142.75;100.00;78346.25;5054253;28;20011;-69
2022/09/21 03:45:40;;;;;;;;;;;;;;;-142.75;100.00;78342.31;5054316;28;19920;-69
2022/09/21 03:48:05;;;;;;;;;;;;;;;-142.75;100.00;78362.00;5053884;28;19913;-69
2022/09/21 03:50:30;;;;;;;;;;;;;;;-142.75;100.00;78354.13;5054434;28;20374;-69
2022/09/21 03:52:56;;;;;;;;;;;;;;;-142.75;100.00;78354.13;5054388;28;19913;-69
2022/09/21 03:55:21;;;;;;;;;;;;;;;-142.75;100.00;78348.22;5054045;28;20388;-69
2022/09/21 03:57:46;;;;;;;;;;;;;;;-142.75;100.00;78358.06;5053746;28;19920;-69
2022/09/21 04:00:12;;;;;;;;;;;;;;;-142.75;100.00;78362.00;5036148;28;19920;-69
2022/09/21 04:02:39;;;;;;;;;;;;;;;-142.75;100.00;78389.56;5053821;28;19913;-69
2022/09/21 04:05:05;;;;;;;;;;;;;;;-142.75;100.00;78393.50;5053942;28;20051;-69
2022/09/21 04:07:33;;;;;;;;;;;;;;;-142.75;100.00;78369.88;5052771;28;20327;-69
2022/09/21 04:10:04;;;;;;;;;;;;;;;-142.75;100.00;78397.44;5036041;28;20409;-69
2022/09/21 04:12:30;;;;;;;;;;;;;;;-142.75;100.00;78423.06;5053831;28;20318;-69
2022/09/21 04:14:55;;;;;;;;;;;;;;;-142.75;100.00;78448.66;5053566;28;19917;-69
2022/09/21 04:17:20;;;;;;;;;;;;;;;-142.75;100.00;78468.34;5053399;28;19956;-69
2022/09/21 04:19:46;;;;;;;;;;;;;;;-142.75;100.00;78468.34;5053677;28;19912;-69
2022/09/21 04:22:12;;;;;;;;;;;;;;;-142.75;100.00;78460.47;5053691;28;19916;-68
2022/09/21 04:24:40;;;;;;;;;;;;;;;-142.75;100.00;78476.22;5053499;28;19917;-69
2022/09/21 04:27:07;;;;;;;;;;;;;;;-142.75;100.00;78452.59;5053170;28;19913;-69
2022/09/21 04:29:32;;;;;;;;;;;;;;;-142.75;100.00;78446.69;5035573;28;20333;-69
2022/09/21 04:31:58;;;;;;;;;;;;;;;-142.75;100.00;78446.69;5053357;28;19913;-69
2022/09/21 04:34:23;;;;;;;;;;;;;;;-142.75;100.00;78454.56;5053272;28;20011;-69
2022/09/21 04:36:48;;;;;;;;;;;;;;;-142.75;100.00;78462.44;5035198;28;19963;-69
2022/09/21 04:39:13;;;;;;;;;;;;;;;-142.75;100.00;78480.16;5053326;28;19916;-69
2022/09/21 04:41:39;;;;;;;;;;;;;;;-142.75;100.00;78484.09;5035390;28;20278;-69
2022/09/21 04:44:04;;;;;;;;;;;;;;;-142.75;100.00;78488.03;5053194;28;19959;-69
2022/09/21 04:46:29;;;;;;;;;;;;;;;-142.75;100.00;78493.97;5052978;28;20298;-69
2022/09/21 04:48:54;;;;;;;;;;;;;;;-142.75;100.00;78490.00;5052930;28;19940;-69
2022/09/21 04:51:19;;;;;;;;;;;;;;;-142.75;100.00;78474.25;5053025;28;19913;-69
2022/09/21 04:53:45;;;;;;;;;;;;;;;-142.75;100.00;78452.59;5052921;28;19924;-69
2022/09/21 04:56:12;;;;;;;;;;;;;;;-142.75;100.00;78440.78;5035072;28;20374;-69
2022/09/21 04:58:38;;;;;;;;;;;;;;;-142.75;100.00;78432.91;5034792;28;20008;-69
2022/09/21 05:01:05;;;;;;;;;;;;;;;-142.75;100.00;78401.38;5052859;28;19959;-69
2022/09/21 05:03:30;;;;;;;;;;;;;;;-142.75;100.00;78397.44;5052821;28;19913;-69
2022/09/21 05:05:55;;;;;;;;;;;;;;;-142.75;100.00;78395.47;5034959;28;19913;-69
2022/09/21 05:11:06;;;;;;;;;;;;;;;-142.75;100.00;78383.66;5037942;28;19924;-69
2022/09/21 05:13:32;;;;;;;;;;;;;;;-142.75;100.00;78362.00;5051832;28;19921;-69
2022/09/21 05:15:57;;;;;;;;;;;;;;;-142.75;100.00;78356.09;5052676;28;20400;-69
2022/09/21 05:18:22;;;;;;;;;;;;;;;-142.75;100.00;78373.81;5052224;28;20286;-69
2022/09/21 05:20:57;;;;;;;;;;;;;;;-142.75;100.00;78360.03;5034678;28;19936;-69
2022/09/21 05:23:23;;;;;;;;;;;;;;;-142.75;100.00;78373.81;5052482;28;19919;-70
2022/09/21 05:25:48;;;;;;;;;;;;;;;-142.75;100.00;78371.84;5034612;28;19932;-69
2022/09/21 05:28:14;;;;;;;;;;;;;;;-142.75;100.00;78369.88;5052073;28;20348;-69
2022/09/21 05:30:40;;;;;;;;;;;;;;;-142.75;100.00;78362.00;5052614;28;20015;-69
2022/09/21 05:33:06;;;;;;;;;;;;;;;-142.75;100.00;78352.16;5039808;28;19921;-70
2022/09/21 05:35:31;;;;;;;;;;;;;;;-142.75;100.00;78350.19;5032433;28;19913;-69
2022/09/21 05:38:07;;;;;;;;;;;;;;;-142.75;100.00;78365.94;5037536;28;19928;-69
2022/09/21 05:40:32;;;;;;;;;;;;;;;-142.75;100.00;78352.16;5051253;28;19963;-69
2022/09/21 05:42:58;;;;;;;;;;;;;;;-142.75;100.00;78354.13;5052100;28;19963;-69
2022/09/21 05:45:24;;;;;;;;;;;;;;;-142.75;100.00;78363.97;5052102;28;19917;-69
2022/09/21 05:47:54;;;;;;;;;;;;;;;-142.75;100.00;78348.22;5051839;28;19916;-69
2022/09/21 05:50:38;;;;;;;;;;;;;;;-142.75;100.00;78346.25;5052101;28;19956;-69
2022/09/21 05:53:22;;;;;;;;;;;;;;;-142.75;100.00;78336.41;5051820;28;19944;-69
2022/09/21 05:55:56;;;;;;;;;;;;;;;-142.75;100.00;78326.56;5052085;28;19916;-69
2022/09/21 05:58:21;;;;;;;;;;;;;;;-142.75;100.00;78338.38;5033858;28;19913;-69
2022/09/21 06:01:01;;;;;;;;;;;;;;;-142.75;100.00;78344.28;5051967;28;19913;-69
2022/09/21 06:03:28;;;;;;;;;;;;;;;-142.75;100.00;78338.38;5051872;28;19913;-68
2022/09/21 06:05:53;;;;;;;;;;;;;;;-142.75;100.00;78338.38;5051880;28;20015;-69
2022/09/21 06:08:18;;;;;;;;;;;;;;;-142.75;100.00;78330.50;5033852;28;19996;-69
2022/09/21 06:10:44;;;;;;;;;;;;;;;-142.75;100.00;78336.41;5051505;28;20393;-69
2022/09/21 06:13:09;;;;;;;;;;;;;;;-142.75;100.00;78348.22;5051487;28;20410;-69
2022/09/21 06:15:37;;;;;;;;;;;;;;;-142.75;100.00;78356.09;5070578;22;19929;-69
2022/09/21 06:18:04;;;;;;;;;;;;;;;-142.75;100.00;78362.00;5048401;28;20383;-70
2022/09/21 06:20:29;;;;;;;;;;;;;;;-142.75;100.00;78346.25;5052689;28;19916;-69
2022/09/21 06:22:59;;;;;;;;;;;;;;;-142.75;100.00;78338.38;5053432;28;19912;-70
2022/09/21 06:25:24;;;;;;;;;;;;;;;-142.75;100.00;78338.38;5048892;28;20404;-70
2022/09/21 06:27:49;;;;;;;;;;;;;;;-142.75;100.00;78342.31;5042918;28;19964;-69
2022/09/21 06:30:14;;;;;;;;;;;;;;;-142.75;100.00;78322.63;5043222;28;19952;-69
2022/09/21 06:32:39;;;;;;;;;;;;;;;-142.75;100.00;78322.63;5047186;28;19962;-69
2022/09/21 06:35:05;;;;;;;;;;;;;;;-142.75;100.00;78312.78;5044886;28;20000;-70
2022/09/21 06:37:30;;;;;;;;;;;;;;;-142.75;100.00;78291.09;5044954;28;20008;-69
2022/09/21 06:39:55;;;;;;;;;;;;;;;-142.75;100.00;78283.22;5041033;28;20401;-69
2022/09/21 06:42:20;;;;;;;;;;;;;;;-142.75;100.00;78287.16;5035804;28;20382;-69
2022/09/21 06:44:45;;;;;;;;;;;;;;;-142.75;100.00;78279.28;5035700;28;20379;-69
2022/09/21 06:47:11;;;;;;;;;;;;;;;-142.75;100.00;78263.53;5034178;28;19939;-69
2022/09/21 06:49:36;;;;;;;;;;;;;;;-142.75;100.00;78251.72;5035818;28;19924;-69
2022/09/21 06:52:01;;;;;;;;;;;;;;;-142.75;100.00;78247.78;5034070;28;19995;-68
2022/09/21 06:54:26;;;;;;;;;;;;;;;-142.75;100.00;78226.13;5033897;28;19927;-69
2022/09/21 06:56:51;;;;;;;;;;;;;;;-142.75;100.00;78180.81;5034125;28;20301;-69
2022/09/21 06:59:17;;;;;;;;;;;;;;;-142.75;100.00;78141.44;5035466;28;20374;-69
2022/09/21 07:01:43;;;;;;;;;;;;;;;-142.75;100.00;78082.38;5035489;28;19919;-69
2022/09/21 07:04:08;;;;;;;;;;;;;;;-142.75;100.00;78042.97;5035520;28;19921;-69
2022/09/21 07:06:33;;;;;;;;;;;;;;;-142.75;100.00;78019.34;5035259;28;19913;-69
2022/09/21 07:08:59;;;;;;;;;;;;;;;-142.75;100.00;77991.78;5035428;28;19913;-69
2022/09/21 07:11:26;;;;;;;;;;;;;;;-142.75;100.00;77993.75;5035404;28;19913;-69
2022/09/21 07:13:51;;;;;;;;;;;;;;;-142.75;100.00;77948.47;5035156;28;20011;-69
2022/09/21 07:16:18;;;;;;;;;;;;;;;-142.75;100.00;77899.22;5033988;28;19951;-70
2022/09/21 07:18:43;;;;;;;;;;;;;;;-142.75;100.00;77897.25;5032418;28;20330;-68
2022/09/21 07:21:09;;;;;;;;;;;;;;;-142.75;100.00;77899.22;5036138;28;19917;-70
2022/09/21 07:23:35;;;;;;;;;;;;;;;-142.75;100.00;77857.88;5044048;28;19958;-69
2022/09/21 07:26:01;;;;;;;;;;;;;;;-142.75;100.00;77816.53;5043066;28;19949;-69
2022/09/21 07:28:26;;;;;;;;;;;;;;;-142.75;100.00;77802.75;5038796;28;19927;-69
2022/09/21 07:30:52;;;;;;;;;;;;;;;-142.75;100.00;77773.22;5040244;28;19917;-68
2022/09/21 07:33:17;;;;;;;;;;;;;;;-142.75;100.00;77759.44;5035158;28;19921;-69
2022/09/21 07:35:49;;;;;;;;;;;;;;;-142.75;100.00;77763.38;5036657;28;20000;-68
2022/09/21 07:38:14;;;;;;;;;;;;;;;-142.75;100.00;77755.50;5035964;28;19959;-69
2022/09/21 07:40:39;;;;;;;;;;;;;;;-142.75;100.00;77727.94;5038451;28;19956;-68
2022/09/21 07:43:05;;;;;;;;;;;;;;;-142.75;100.00;77702.31;5046288;28;20626;-69
2022/09/21 07:45:30;;;;;;;;;;;;;;;-142.75;100.00;77645.22;5036739;28;19917;-69
2022/09/21 07:48:01;;;;;;;;;;;;;;;-142.75;100.00;77603.88;5038100;28;19928;-67
2022/09/21 07:50:26;;;;;;;;;;;;;;;-142.75;100.00;77580.25;5038000;28;19920;-66
2022/09/21 07:52:51;;;;;;;;;;;;;;;-142.75;100.00;77560.56;5040955;28;19920;-66
2022/09/21 07:55:16;;;;;;;;;;;;;;;-142.75;100.00;77554.66;5039013;28;20457;-66
2022/09/21 08:00:28;;;;;;;;;;;;;;;-142.75;100.00;77540.88;5045475;28;19967;-69
2022/09/21 08:02:53;;;;;;;;;;;;;;;-142.75;100.00;77564.50;5038428;28;19921;-69
2022/09/21 08:05:18;;;;;;;;;;;;;;;-142.75;100.00;77562.53;5040268;28;19913;-69
2022/09/21 08:07:44;;;;;;;;;;;;;;;-142.75;100.00;77485.75;5043035;28;19913;-68
2022/09/21 08:10:09;;;;;;;;;;;;;;;-142.75;100.00;77470.00;5052266;28;20004;-68
2022/09/21 08:12:34;;;;;;;;;;;;;;;-142.75;100.00;77450.28;5040327;28;19921;-69
2022/09/21 08:15:00;;;;;;;;;;;;;;;-142.75;100.00;77444.38;4975349;28;1756079;-68
2022/09/21 08:17:25;;;;;;;;;;;;;;;-142.75;100.00;77428.63;5040354;28;20314;-69
2022/09/21 08:19:50;;;;;;;;;;;;;;;-142.75;100.00;77464.09;5036565;28;20004;-68
2022/09/21 08:22:15;;;;;;;;;;;;;;;-142.75;100.00;77456.22;5037542;28;19913;-68
2022/09/21 08:24:43;;;;;;;;;;;;;;;-142.75;100.00;77428.63;5035609;28;19920;-68
2022/09/21 08:27:09;;;;;;;;;;;;;;;-142.75;100.00;77397.13;5034761;28;19917;-68
2022/09/21 08:29:35;;;;;;;;;;;;;;;-142.75;100.00;77361.69;5037238;28;19936;-68
2022/09/21 08:32:01;;;;;;;;;;;;;;;-142.75;100.00;77351.84;5036474;28;19913;-69
2022/09/21 08:34:26;;;;;;;;;;;;;;;-142.75;100.00;77312.47;5039327;28;19999;-69
2022/09/21 08:36:52;;;;;;;;;;;;;;;-142.75;100.00;77338.06;5039174;28;19945;-69
2022/09/21 08:39:17;;;;;;;;;;;;;;;-142.75;100.00;77371.53;5047074;28;19917;-66
2022/09/21 08:42:01;;;;;;;;;;;;;;;-142.75;100.00;77355.78;5048885;28;19955;-67
2022/09/21 08:44:37;;;;;;;;;;;;;;;-142.75;100.00;77300.66;5045843;28;20339;-67
2022/09/21 08:47:02;;;;;;;;;;;;;;;-142.75;100.00;77314.44;5036849;28;19913;-66
2022/09/21 08:49:28;;;;;;;;;;;;;;;-142.75;100.00;77320.34;5035783;28;19920;-67
2022/09/21 08:51:57;;;;;;;;;;;;;;;-142.75;100.00;77314.44;5038354;28;19921;-66
2022/09/21 08:54:33;;;;;;;;;;;;;;;-142.75;100.00;77306.56;5033550;28;19925;-67
2022/09/21 08:56:59;;;;;;;;;;;;;;;-142.75;100.00;77300.66;5042980;28;19971;-67
2022/09/21 08:59:24;;;;;;;;;;;;;;;-142.75;100.00;77326.25;5033182;28;19913;-67
2022/09/21 09:01:57;;;;;;;;;;;;;;;-142.75;100.00;77298.69;5033184;28;20398;-66
2022/09/21 09:04:36;;;;;;;;;;;;;;;-142.75;100.00;77277.03;5032863;28;19975;-67
2022/09/21 09:07:01;;;;;;;;;;;;;;;-142.75;100.00;77241.59;5032548;28;19913;-67
2022/09/21 09:09:29;;;;;;;;;;;;;;;-142.75;100.00;77221.91;5030584;28;19959;-71
2022/09/21 09:12:00;;;;;;;;;;;;;;;-142.75;100.00;77241.59;5032177;28;20421;-67
2022/09/21 09:14:39;;;;;;;;;;;;;;;-142.75;100.00;77259.31;5032463;28;19927;-67
2022/09/21 09:17:13;;;;;;;;;;;;;;;-142.75;100.00;77235.69;5032365;28;19920;-67
2022/09/21 09:19:51;;;;;;;;;;;;;;;-142.75;94.23;77212.06;5040009;28;19921;-69
2022/09/21 09:22:19;;;;;;;;;;;;;;;-142.75;88.33;77192.38;5041769;28;19913;-69
2022/09/21 09:24:51;;;;;;;;;;;;;;;-142.75;86.18;77145.13;5039164;28;20378;-67
2022/09/21 09:27:26;;;;;;;;;;;;;;;-142.75;85.75;77127.41;5042483;28;19913;-67
2022/09/21 09:30:12;;;;;;;;;;;;;;;-142.75;87.78;77151.03;5042021;28;19974;-67
2022/09/21 09:32:48;;;;;;;;;;;;;;;-142.75;91.23;77149.06;5040964;28;20090;-67
2022/09/21 09:35:23;;;;;;;;;;;;;;;-142.75;90.71;77123.47;5042286;28;19971;-67
2022/09/21 09:37:48;;;;;;;;;;;;;;;-142.75;86.72;77074.25;5041241;28;19917;-66
2022/09/21 09:40:17;;;;;;;;;;;;;;;-142.75;80.97;77046.69;5049140;28;20271;-67
2022/09/21 09:42:48;;;;;;;;;;;;;;;-142.75;78.28;77042.75;5052274;28;20298;-67
2022/09/21 09:45:25;;;;;;;;;;;;;;;-142.75;77.03;77086.06;5050558;28;19913;-67
2022/09/21 09:47:51;;;;;;;;;;;;;;;-142.75;74.61;77040.78;5049922;28;19913;-67
2022/09/21 09:50:23;;;;;;;;;;;;;;;-142.75;76.14;77017.16;5051170;28;19913;-67
2022/09/21 09:52:52;;;;;;;;;;;;;;;-142.75;76.49;77028.97;5052148;28;20390;-66
2022/09/21 09:55:19;;;;;;;;;;;;;;;-142.75;78.99;76983.69;5052155;28;19939;-66
2022/09/21 09:57:45;;;;;;;;;;;;;;;-142.75;78.47;77101.81;5052274;28;20454;-67
2022/09/21 10:00:14;;;;;;;;;;;;;;;-142.75;78.00;76989.59;5052254;28;19992;-66
2022/09/21 10:02:48;;;;;;;;;;;;;;;-142.75;73.62;77007.31;5052142;28;19913;-66
2022/09/21 10:05:32;;;;;;;;;;;;;;;-142.75;76.84;77013.22;5053278;28;19913;-66
2022/09/21 10:07:57;;;;;;;;;;;;;;;-142.75;74.13;77078.19;5054723;28;19921;-66
2022/09/21 10:10:22;;;;;;;;;;;;;;;-142.75;75.40;77080.16;5056334;28;19935;-66
2022/09/21 10:12:49;;;;;;;;;;;;;;;-142.75;75.40;77058.50;5056259;28;19936;-66
2022/09/21 10:15:16;;;;;;;;;;;;;;;-142.75;73.87;77005.34;5056034;28;19920;-66
2022/09/21 10:17:44;;;;;;;;;;;;;;;-142.75;76.31;76975.81;5055684;28;20382;-66
2022/09/21 10:20:14;;;;;;;;;;;;;;;-142.75;74.76;76987.63;5056176;28;19958;-66
2022/09/21 10:22:40;;;;;;;;;;;;;;;-142.75;72.76;76906.91;5056079;28;20386;-66
2022/09/21 10:25:13;;;;;;;;;;;;;;;-142.75;74.99;76916.75;5050777;28;19923;-67
2022/09/21 10:27:41;;;;;;;;;;;;;;;-142.75;70.86;76899.03;5044537;28;19917;-67
2022/09/21 10:30:27;;;;;;;;;;;;;;;-142.75;69.54;76836.03;5044249;28;20383;-69
2022/09/21 10:32:54;;;;;;;;;;;;;;;-142.75;67.13;76853.75;5044166;28;19913;-67
2022/09/21 10:35:19;;;;;;;;;;;;;;;-142.75;67.12;76806.50;5044681;28;20399;-68
2022/09/21 10:37:52;;;;;;;;;;;;;;;-142.75;66.58;76818.31;5043102;28;19966;-67
2022/09/21 10:40:20;;;;;;;;;;;;;;;-142.75;66.56;76810.44;5043401;28;19927;-67
2022/09/21 10:42:46;;;;;;;;;;;;;;;-142.75;67.06;76771.09;5043438;28;20358;-67
2022/09/21 10:45:12;;;;;;;;;;;;;;;-142.75;65.22;76767.16;5039803;28;19924;-68
2022/09/21 10:48:03;;;;;;;;;;;;;;;-142.75;64.52;76826.19;5037272;28;20329;-67
2022/09/21 10:50:33;;;;;;;;;;;;;;;-142.75;67.68;76786.84;5018207;28;19917;-67
2022/09/21 10:53:07;;;;;;;;;;;;;;;-142.75;66.98;76786.84;5041817;28;19917;-67
2022/09/21 10:55:35;;;;;;;;;;;;;;;-142.75;62.25;76739.59;5043507;28;20008;-67
2022/09/21 10:58:01;;;;;;;;;;;;;;;-142.75;59.34;76771.09;5044614;28;19912;-67
2022/09/21 11:00:36;;;;;;;;;;;;;;;-142.75;57.03;76743.53;5045137;28;19966;-67
2022/09/21 11:03:20;;;;;;;;;;;;;;;-142.75;57.73;76824.22;5044546;28;19913;-68
2022/09/21 11:05:48;;;;;;;;;;;;;;;-142.75;62.21;76883.28;5034789;28;20414;-67
2022/09/21 11:08:16;;;;;;;;;;;;;;;-142.75;64.27;76922.66;5035125;28;19913;-68
2022/09/21 11:10:42;;;;;;;;;;;;;;;-142.75;67.85;76904.94;5035069;28;19913;-68
2022/09/21 11:13:22;;;;;;;;;;;;;;;-142.75;65.73;76877.38;5035064;28;19928;-67
2022/09/21 11:15:54;;;;;;;;;;;;;;;-142.75;62.71;76806.50;5034543;28;19928;-67
2022/09/21 11:18:19;;;;;;;;;;;;;;;-142.75;60.19;76851.78;5039783;28;19923;-67
2022/09/21 11:21:03;;;;;;;;;;;;;;;-142.75;59.94;76889.19;5054820;28;19913;-68
2022/09/21 11:23:47;;;;;;;;;;;;;;;-142.75;60.57;76747.47;5054821;28;19917;-67
2022/09/21 11:26:27;;;;;;;;;;;;;;;-142.75;59.23;76810.44;5054685;28;19960;-67
2022/09/21 11:28:59;;;;;;;;;;;;;;;-142.75;59.23;76786.84;5054736;28;19913;-67
2022/09/21 11:31:24;;;;;;;;;;;;;;;-142.75;57.27;76761.25;5053373;28;19952;-67
2022/09/21 11:33:49;;;;;;;;;;;;;;;-142.75;57.35;76800.63;5054587;28;19963;-67
2022/09/21 11:36:47;;;;;;;;;;;;;;;-142.75;56.64;76712.03;5054493;28;20382;-68
2022/09/21 11:39:18;;;;;;;;;;;;;;;-142.75;59.49;76818.31;4998871;28;19912;-68
2022/09/21 11:41:49;;;;;;;;;;;;;;;-142.75;62.43;76881.31;5054384;28;19913;-68
2022/09/21 11:44:21;;;;;;;;;;;;;;;-142.75;61.53;76853.75;5054252;28;19912;-68
2022/09/21 11:46:53;;;;;;;;;;;;;;;-142.75;61.79;76786.84;5054046;28;19912;-68
2022/09/21 11:49:33;;;;;;;;;;;;;;;-142.75;61.61;76775.03;5054338;28;19913;-67
2022/09/21 11:52:20;;;;;;;;;;;;;;;-142.75;62.59;76775.03;5037320;28;19921;-67
2022/09/21 11:54:51;;;;;;;;;;;;;;;-142.75;61.86;76708.09;5043606;28;19921;-67
2022/09/21 11:57:24;;;;;;;;;;;;;;;-142.75;59.88;76715.97;5042224;28;19944;-67
2022/09/21 12:00:04;;;;;;;;;;;;;;;-142.75;60.04;76715.97;5042850;28;20382;-67
2022/09/21 12:02:44;;;;;;;;;;;;;;;-142.75;57.07;76678.56;5044157;28;19913;-67
2022/09/21 12:05:28;;;;;;;;;;;;;;;-142.75;52.05;76723.84;5044144;28;19913;-68
2022/09/21 12:08:13;;;;;;;;;;;;;;;-142.75;54.66;76790.78;5044180;28;20000;-67
2022/09/21 12:10:44;;;;;;;;;;;;;;;-142.75;59.67;76800.63;5044213;28;19913;-67
2022/09/21 12:13:16;;;;;;;;;;;;;;;-142.75;58.64;76810.44;5044042;28;19917;-67
2022/09/21 12:18:10;;;;;;;;;;;;;;;-142.75;57.17;76704.16;5102736;22;20631;-70
2022/09/21 12:20:49;;;;;;;;;;;;;;;-142.75;58.89;76780.94;5092788;28;19916;-71
2022/09/21 12:23:18;;;;;;;;;;;;;;;-142.75;58.12;76777.00;5094007;28;20274;-71
2022/09/21 12:25:48;;;;;;;;;;;;;;;-142.75;58.45;76826.19;5093798;28;19924;-71
2022/09/21 12:28:19;;;;;;;;;;;;;;;-142.75;60.10;76818.31;5092806;28;19912;-71
2022/09/21 12:30:46;;;;;;;;;;;;;;;-142.75;60.05;76867.53;5093581;28;19923;-71
2022/09/21 12:33:16;;;;;;;;;;;;;;;-142.75;63.70;76796.69;5093853;28;20297;-71
2022/09/21 12:35:41;;;;;;;;;;;;;;;-142.75;60.78;76727.78;5093564;28;19919;-70